createdAt,value
2016-09-23T00:00:47.089Z,1021.69
2016-09-23T00:01:47.112Z,1021.7
2016-09-23T00:02:47.131Z,1021.72
2016-09-23T00:03:47.152Z,1021.72
2016-09-23T00:04:47.173Z,1021.73
2016-09-23T00:05:47.191Z,1021.76
2016-09-23T00:06:47.205Z,1021.73
2016-09-23T00:07:47.227Z,1021.72
2016-09-23T00:08:47.255Z,1021.7
2016-09-23T00:09:47.272Z,1021.75
2016-09-23T00:10:47.287Z,1021.74
2016-09-23T00:11:47.311Z,1021.71
2016-09-23T00:12:47.328Z,1021.69
2016-09-23T00:13:47.353Z,1021.69
2016-09-23T00:14:47.367Z,1021.67
2016-09-23T00:15:47.386Z,1021.67
2016-09-23T00:16:47.410Z,1021.69
2016-09-23T00:17:47.426Z,1021.67
2016-09-23T00:18:47.451Z,1021.67
2016-09-23T00:19:47.467Z,1021.71
2016-09-23T00:20:47.482Z,1021.68
2016-09-23T00:21:47.512Z,1021.68
2016-09-23T00:22:47.531Z,1021.69
2016-09-23T00:23:47.547Z,1021.63
2016-09-23T00:24:47.573Z,1021.67
2016-09-23T00:25:47.584Z,1021.68
2016-09-23T00:26:47.613Z,1021.65
2016-09-23T00:27:47.633Z,1021.67
2016-09-23T00:28:47.643Z,1021.68
2016-09-23T00:29:47.663Z,1021.68
2016-09-23T00:30:47.683Z,1021.69
2016-09-23T00:31:47.741Z,1021.68
2016-09-23T00:32:47.722Z,1021.69
2016-09-23T00:33:47.793Z,1021.7
2016-09-23T00:34:47.762Z,1021.7
2016-09-23T00:35:47.782Z,1021.71
2016-09-23T00:36:47.802Z,1021.71
2016-09-23T00:37:47.819Z,1021.73
2016-09-23T00:38:47.941Z,1021.75
2016-09-23T00:39:47.861Z,1021.71
2016-09-23T00:40:47.880Z,1021.71
2016-09-23T00:41:47.903Z,1021.72
2016-09-23T00:42:47.922Z,1021.71
2016-09-23T00:43:47.935Z,1021.71
2016-09-23T00:44:47.962Z,1021.67
2016-09-23T00:45:47.978Z,1021.7
2016-09-23T00:46:47.995Z,1021.7
2016-09-23T00:47:48.022Z,1021.72
2016-09-23T00:48:48.038Z,1021.73
2016-09-23T00:49:48.054Z,1021.72
2016-09-23T00:50:48.079Z,1021.71
2016-09-23T00:51:48.097Z,1021.76
2016-09-23T00:52:48.122Z,1021.71
2016-09-23T00:53:48.240Z,1021.76
2016-09-23T00:54:48.164Z,1021.74
2016-09-23T00:55:48.183Z,1021.71
2016-09-23T00:56:48.192Z,1021.76
2016-09-23T00:57:48.211Z,1021.75
2016-09-23T00:58:48.232Z,1021.75
2016-09-23T00:59:48.249Z,1021.71
2016-09-23T01:00:48.272Z,1021.72
2016-09-23T01:01:48.291Z,1021.71
2016-09-23T01:02:48.313Z,1021.69
2016-09-23T01:03:48.331Z,1021.74
2016-09-23T01:04:48.368Z,1021.71
2016-09-23T01:05:48.377Z,1021.71
2016-09-23T01:06:48.399Z,1021.73
2016-09-23T01:07:48.408Z,1021.73
2016-09-23T01:08:48.430Z,1021.74
2016-09-23T01:09:48.451Z,1021.77
2016-09-23T01:10:48.470Z,1021.77
2016-09-23T01:11:48.482Z,1021.79
2016-09-23T01:12:48.500Z,1021.8
2016-09-23T01:13:48.533Z,1021.77
2016-09-23T01:14:48.554Z,1021.77
2016-09-23T01:15:48.569Z,1021.8
2016-09-23T01:16:48.581Z,1021.8
2016-09-23T01:17:48.603Z,1021.76
2016-09-23T01:18:48.617Z,1021.8
2016-09-23T01:19:48.644Z,1021.78
2016-09-23T01:20:48.657Z,1021.8
2016-09-23T01:21:48.681Z,1021.78
2016-09-23T01:22:48.700Z,1021.8
2016-09-23T01:23:48.768Z,1021.8
2016-09-23T01:24:48.739Z,1021.79
2016-09-23T01:25:48.760Z,1021.82
2016-09-23T01:26:48.773Z,1021.8
2016-09-23T01:27:48.800Z,1021.78
2016-09-23T01:28:48.818Z,1021.83
2016-09-23T01:29:48.831Z,1021.81
2016-09-23T01:30:48.851Z,1021.78
2016-09-23T01:31:48.871Z,1021.81
2016-09-23T01:32:48.890Z,1021.79
2016-09-23T01:33:48.959Z,1021.82
2016-09-23T01:34:48.934Z,1021.81
2016-09-23T01:35:48.951Z,1021.81
2016-09-23T01:36:48.967Z,1021.81
2016-09-23T01:37:48.985Z,1021.8
2016-09-23T01:38:49.009Z,1021.8
2016-09-23T01:39:49.030Z,1021.81
2016-09-23T01:40:49.047Z,1021.8
2016-09-23T01:41:49.066Z,1021.77
2016-09-23T01:42:49.092Z,1021.78
2016-09-23T01:43:49.159Z,1021.8
2016-09-23T01:44:49.120Z,1021.8
2016-09-23T01:45:49.143Z,1021.83
2016-09-23T01:46:49.161Z,1021.8
2016-09-23T01:47:49.179Z,1021.8
2016-09-23T01:48:49.197Z,1021.79
2016-09-23T01:49:49.215Z,1021.79
2016-09-23T01:50:49.236Z,1021.79
2016-09-23T01:51:49.259Z,1021.78
2016-09-23T01:52:49.282Z,1021.78
2016-09-23T01:53:49.594Z,1021.8
2016-09-23T01:54:49.314Z,1021.79
2016-09-23T01:55:49.340Z,1021.75
2016-09-23T01:56:49.359Z,1021.78
2016-09-23T01:57:49.379Z,1021.77
2016-09-23T01:58:49.395Z,1021.81
2016-09-23T01:59:49.415Z,1021.76
2016-09-23T02:00:49.434Z,1021.74
2016-09-23T02:01:49.454Z,1021.7
2016-09-23T02:02:49.471Z,1021.75
2016-09-23T02:03:49.540Z,1021.74
2016-09-23T02:04:49.519Z,1021.76
2016-09-23T02:05:49.529Z,1021.7
2016-09-23T02:06:49.557Z,1021.72
2016-09-23T02:07:49.575Z,1021.75
2016-09-23T02:08:49.591Z,1021.7
2016-09-23T02:09:49.609Z,1021.71
2016-09-23T02:10:49.639Z,1021.73
2016-09-23T02:11:49.655Z,1021.73
2016-09-23T02:12:49.672Z,1021.71
2016-09-23T02:13:49.689Z,1021.69
2016-09-23T02:14:49.711Z,1021.7
2016-09-23T02:15:49.729Z,1021.68
2016-09-23T02:16:49.753Z,1021.67
2016-09-23T02:17:49.769Z,1021.66
2016-09-23T02:18:49.798Z,1021.64
2016-09-23T02:19:49.809Z,1021.64
2016-09-23T02:20:49.883Z,1021.64
2016-09-23T02:21:49.850Z,1021.61
2016-09-23T02:22:49.877Z,1021.67
2016-09-23T02:23:49.945Z,1021.65
2016-09-23T02:24:49.909Z,1021.66
2016-09-23T02:25:49.933Z,1021.62
2016-09-23T02:26:49.950Z,1021.63
2016-09-23T02:27:49.970Z,1021.62
2016-09-23T02:28:49.993Z,1021.63
2016-09-23T02:29:50.021Z,1021.63
2016-09-23T02:30:50.032Z,1021.66
2016-09-23T02:31:50.057Z,1021.71
2016-09-23T02:32:50.076Z,1021.73
2016-09-23T02:33:50.244Z,1021.74
2016-09-23T02:34:50.112Z,1021.7
2016-09-23T02:35:50.133Z,1021.71
2016-09-23T02:36:50.161Z,1021.71
2016-09-23T02:37:50.176Z,1021.71
2016-09-23T02:38:50.199Z,1021.74
2016-09-23T02:39:50.220Z,1021.76
2016-09-23T02:40:50.237Z,1021.79
2016-09-23T02:41:50.261Z,1021.79
2016-09-23T02:42:50.276Z,1021.8
2016-09-23T02:43:50.296Z,1021.83
2016-09-23T02:44:50.320Z,1021.83
2016-09-23T02:45:50.339Z,1021.85
2016-09-23T02:46:50.361Z,1021.86
2016-09-23T02:47:50.378Z,1021.87
2016-09-23T02:48:50.400Z,1021.85
2016-09-23T02:49:50.419Z,1021.87
2016-09-23T02:50:50.437Z,1021.91
2016-09-23T02:51:50.458Z,1021.84
2016-09-23T02:52:50.478Z,1021.88
2016-09-23T02:53:50.506Z,1021.89
2016-09-23T02:54:50.519Z,1021.84
2016-09-23T02:55:50.551Z,1021.9
2016-09-23T02:56:50.560Z,1021.9
2016-09-23T02:57:50.589Z,1021.89
2016-09-23T02:58:50.603Z,1021.91
2016-09-23T02:59:50.634Z,1021.9
2016-09-23T03:00:50.644Z,1021.9
2016-09-23T03:01:50.664Z,1021.91
2016-09-23T03:02:50.681Z,1021.87
2016-09-23T03:03:50.701Z,1021.87
2016-09-23T03:04:50.726Z,1021.86
2016-09-23T03:05:50.750Z,1021.9
2016-09-23T03:06:50.763Z,1021.88
2016-09-23T03:07:50.791Z,1021.94
2016-09-23T03:08:50.810Z,1021.86
2016-09-23T03:09:50.827Z,1021.9
2016-09-23T03:10:50.850Z,1021.88
2016-09-23T03:11:50.863Z,1021.86
2016-09-23T03:12:50.888Z,1021.88
2016-09-23T03:13:50.957Z,1021.86
2016-09-23T03:14:50.930Z,1021.88
2016-09-23T03:15:50.947Z,1021.85
2016-09-23T03:16:50.967Z,1021.82
2016-09-23T03:17:50.993Z,1021.87
2016-09-23T03:18:51.213Z,1021.83
2016-09-23T03:19:51.030Z,1021.84
2016-09-23T03:20:51.049Z,1021.84
2016-09-23T03:21:51.079Z,1021.85
2016-09-23T03:22:51.089Z,1021.86
2016-09-23T03:23:51.119Z,1021.83
2016-09-23T03:24:51.133Z,1021.84
2016-09-23T03:25:51.153Z,1021.81
2016-09-23T03:26:51.168Z,1021.79
2016-09-23T03:27:51.188Z,1021.76
2016-09-23T03:28:51.223Z,1021.79
2016-09-23T03:29:51.236Z,1021.79
2016-09-23T03:30:51.250Z,1021.81
2016-09-23T03:31:51.279Z,1021.81
2016-09-23T03:32:51.296Z,1021.79
2016-09-23T03:33:51.316Z,1021.78
2016-09-23T03:34:51.339Z,1021.81
2016-09-23T03:35:51.362Z,1021.83
2016-09-23T03:36:51.379Z,1021.86
2016-09-23T03:37:51.400Z,1021.84
2016-09-23T03:38:51.413Z,1021.84
2016-09-23T03:39:51.440Z,1021.85
2016-09-23T03:40:51.458Z,1021.83
2016-09-23T03:41:51.480Z,1021.77
2016-09-23T03:42:51.508Z,1021.78
2016-09-23T03:43:51.577Z,1021.79
2016-09-23T03:44:51.540Z,1021.83
2016-09-23T03:45:51.561Z,1021.82
2016-09-23T03:46:51.589Z,1021.81
2016-09-23T03:47:51.607Z,1021.8
2016-09-23T03:48:51.629Z,1021.77
2016-09-23T03:49:51.641Z,1021.8
2016-09-23T03:50:51.671Z,1021.79
2016-09-23T03:51:51.691Z,1021.79
2016-09-23T03:52:51.719Z,1021.8
2016-09-23T03:53:51.730Z,1021.79
2016-09-23T03:54:51.751Z,1021.82
2016-09-23T03:55:51.769Z,1021.84
2016-09-23T03:56:51.787Z,1021.83
2016-09-23T03:57:51.811Z,1021.86
2016-09-23T03:58:51.979Z,1021.85
2016-09-23T03:59:51.849Z,1021.86
2016-09-23T04:00:51.871Z,1021.81
2016-09-23T04:01:51.892Z,1021.82
2016-09-23T04:02:51.922Z,1021.84
2016-09-23T04:03:51.979Z,1021.81
2016-09-23T04:04:51.956Z,1021.88
2016-09-23T04:05:51.971Z,1021.88
2016-09-23T04:06:51.998Z,1021.88
2016-09-23T04:07:52.019Z,1021.89
2016-09-23T04:08:52.041Z,1021.87
2016-09-23T04:09:52.061Z,1021.82
2016-09-23T04:10:52.079Z,1021.81
2016-09-23T04:11:52.099Z,1021.83
2016-09-23T04:12:52.120Z,1021.81
2016-09-23T04:13:52.192Z,1021.8
2016-09-23T04:14:52.160Z,1021.82
2016-09-23T04:15:52.180Z,1021.83
2016-09-23T04:16:52.207Z,1021.84
2016-09-23T04:17:52.228Z,1021.84
2016-09-23T04:18:52.240Z,1021.82
2016-09-23T04:19:52.420Z,1021.83
2016-09-23T04:20:52.289Z,1021.84
2016-09-23T04:21:52.312Z,1021.82
2016-09-23T04:22:52.330Z,1021.79
2016-09-23T04:23:52.348Z,1021.83
2016-09-23T04:24:52.478Z,1021.81
2016-09-23T04:25:52.389Z,1021.8
2016-09-23T04:26:52.412Z,1021.81
2016-09-23T04:27:52.430Z,1021.82
2016-09-23T04:28:52.449Z,1021.83
2016-09-23T04:29:52.475Z,1021.85
2016-09-23T04:30:52.496Z,1021.87
2016-09-23T04:31:52.519Z,1021.91
2016-09-23T04:32:52.539Z,1021.87
2016-09-23T04:33:52.740Z,1021.89
2016-09-23T04:34:52.584Z,1021.92
2016-09-23T04:35:52.597Z,1021.92
2016-09-23T04:36:52.620Z,1021.91
2016-09-23T04:37:52.641Z,1021.91
2016-09-23T04:38:52.672Z,1021.94
2016-09-23T04:39:52.680Z,1021.93
2016-09-23T04:40:52.703Z,1021.96
2016-09-23T04:41:52.726Z,1021.95
2016-09-23T04:42:52.741Z,1021.94
2016-09-23T04:43:53.018Z,1021.95
2016-09-23T04:44:52.786Z,1021.9
2016-09-23T04:45:52.810Z,1021.91
2016-09-23T04:46:52.832Z,1021.89
2016-09-23T04:47:52.851Z,1021.89
2016-09-23T04:48:52.871Z,1021.93
2016-09-23T04:49:52.889Z,1021.91
2016-09-23T04:50:52.907Z,1021.94
2016-09-23T04:51:52.937Z,1021.92
2016-09-23T04:52:52.959Z,1021.96
2016-09-23T04:53:53.028Z,1021.96
2016-09-23T04:54:53.001Z,1021.94
2016-09-23T04:55:53.017Z,1021.97
2016-09-23T04:56:53.037Z,1021.98
2016-09-23T04:57:53.054Z,1021.97
2016-09-23T04:58:53.076Z,1021.96
2016-09-23T04:59:53.102Z,1021.96
2016-09-23T05:00:53.121Z,1022
2016-09-23T05:01:53.142Z,1021.99
2016-09-23T05:02:53.166Z,1021.98
2016-09-23T05:03:53.190Z,1022.01
2016-09-23T05:04:53.209Z,1021.99
2016-09-23T05:05:53.229Z,1022
2016-09-23T05:06:53.249Z,1022
2016-09-23T05:07:53.270Z,1022.03
2016-09-23T05:08:53.289Z,1022.02
2016-09-23T05:09:53.309Z,1022.03
2016-09-23T05:10:53.330Z,1022.05
2016-09-23T05:11:53.354Z,1022.02
2016-09-23T05:12:53.369Z,1022.03
2016-09-23T05:13:53.393Z,1022.05
2016-09-23T05:14:53.428Z,1022.03
2016-09-23T05:15:53.435Z,1022.01
2016-09-23T05:16:53.457Z,1022.02
2016-09-23T05:17:53.481Z,1022.03
2016-09-23T05:18:53.502Z,1022.05
2016-09-23T05:19:53.517Z,1022.02
2016-09-23T05:20:53.539Z,1022.03
2016-09-23T05:21:53.565Z,1022.01
2016-09-23T05:22:53.584Z,1022.02
2016-09-23T05:23:53.857Z,1021.99
2016-09-23T05:24:53.629Z,1022.01
2016-09-23T05:25:53.643Z,1022.03
2016-09-23T05:26:53.671Z,1022.01
2016-09-23T05:27:53.688Z,1022
2016-09-23T05:28:53.708Z,1021.99
2016-09-23T05:29:53.731Z,1021.98
2016-09-23T05:30:53.750Z,1022.02
2016-09-23T05:31:53.770Z,1022
2016-09-23T05:32:53.800Z,1021.98
2016-09-23T05:33:53.869Z,1022
2016-09-23T05:34:53.891Z,1021.97
2016-09-23T05:35:53.858Z,1022
2016-09-23T05:36:53.886Z,1021.98
2016-09-23T05:37:53.903Z,1021.99
2016-09-23T05:38:54.021Z,1022.01
2016-09-23T05:39:53.941Z,1022.05
2016-09-23T05:40:53.962Z,1022.1
2016-09-23T05:41:53.979Z,1022.07
2016-09-23T05:42:54.010Z,1022.05
2016-09-23T05:43:54.124Z,1022.06
2016-09-23T05:44:54.045Z,1022.08
2016-09-23T05:45:54.081Z,1022.09
2016-09-23T05:46:54.089Z,1022.09
2016-09-23T05:47:54.107Z,1022.11
2016-09-23T05:48:54.181Z,1022.11
2016-09-23T05:49:54.202Z,1022.13
2016-09-23T05:50:54.171Z,1022.15
2016-09-23T05:51:54.202Z,1022.14
2016-09-23T05:52:54.211Z,1022.15
2016-09-23T05:53:54.236Z,1022.18
2016-09-23T05:54:54.257Z,1022.22
2016-09-23T05:55:54.288Z,1022.25
2016-09-23T05:56:54.302Z,1022.27
2016-09-23T05:57:54.324Z,1022.3
2016-09-23T05:58:54.391Z,1022.23
2016-09-23T05:59:54.361Z,1022.25
2016-09-23T06:00:54.388Z,1022.22
2016-09-23T06:01:54.403Z,1022.3
2016-09-23T06:02:54.421Z,1022.3
2016-09-23T06:03:54.451Z,1022.26
2016-09-23T06:04:54.473Z,1022.27
2016-09-23T06:05:54.488Z,1022.3
2016-09-23T06:06:54.514Z,1022.32
2016-09-23T06:07:54.531Z,1022.36
2016-09-23T06:08:54.609Z,1022.38
2016-09-23T06:09:54.574Z,1022.39
2016-09-23T06:10:54.591Z,1022.42
2016-09-23T06:11:54.624Z,1022.47
2016-09-23T06:12:54.650Z,1022.46
2016-09-23T06:13:54.715Z,1022.5
2016-09-23T06:14:54.682Z,1022.53
2016-09-23T06:15:54.706Z,1022.53
2016-09-23T06:16:54.732Z,1022.54
2016-09-23T06:17:54.747Z,1022.55
2016-09-23T06:18:54.820Z,1022.56
2016-09-23T06:19:54.794Z,1022.51
2016-09-23T06:20:54.811Z,1022.54
2016-09-23T06:21:54.835Z,1022.52
2016-09-23T06:22:54.861Z,1022.52
2016-09-23T06:23:54.878Z,1022.5
2016-09-23T06:24:54.902Z,1022.57
2016-09-23T06:25:54.924Z,1022.6
2016-09-23T06:26:54.941Z,1022.58
2016-09-23T06:27:54.971Z,1022.59
2016-09-23T06:28:54.999Z,1022.59
2016-09-23T06:29:55.007Z,1022.6
2016-09-23T06:30:55.032Z,1022.58
2016-09-23T06:31:55.051Z,1022.62
2016-09-23T06:32:55.080Z,1022.63
2016-09-23T06:33:55.101Z,1022.64
2016-09-23T06:34:55.118Z,1022.67
2016-09-23T06:35:55.143Z,1022.73
2016-09-23T06:36:55.171Z,1022.71
2016-09-23T06:37:55.185Z,1022.72
2016-09-23T06:38:55.257Z,1022.7
2016-09-23T06:39:55.232Z,1022.69
2016-09-23T06:40:55.251Z,1022.75
2016-09-23T06:41:55.284Z,1022.77
2016-09-23T06:42:55.300Z,1022.75
2016-09-23T06:43:55.315Z,1022.82
2016-09-23T06:44:55.339Z,1022.81
2016-09-23T06:45:55.374Z,1022.79
2016-09-23T06:46:55.393Z,1022.81
2016-09-23T06:47:55.404Z,1022.84
2016-09-23T06:48:55.432Z,1022.9
2016-09-23T06:49:55.454Z,1022.91
2016-09-23T06:50:55.479Z,1022.9
2016-09-23T06:51:55.502Z,1022.9
2016-09-23T06:52:55.523Z,1022.89
2016-09-23T06:53:55.544Z,1022.9
2016-09-23T06:54:55.564Z,1022.91
2016-09-23T06:55:55.941Z,1022.88
2016-09-23T06:56:55.808Z,1022.87
2016-09-23T06:57:55.632Z,1022.9
2016-09-23T06:58:55.914Z,1022.89
2016-09-23T06:59:55.841Z,1022.91
2016-09-23T07:00:55.848Z,1022.87
2016-09-23T07:01:55.871Z,1022.87
2016-09-23T07:02:55.848Z,1022.88
2016-09-23T07:03:55.971Z,1022.88
2016-09-23T07:04:55.841Z,1022.85
2016-09-23T07:05:55.865Z,1022.89
2016-09-23T07:06:55.893Z,1022.82
2016-09-23T07:07:55.863Z,1022.86
2016-09-23T07:08:55.929Z,1022.9
2016-09-23T07:09:55.914Z,1022.89
2016-09-23T07:10:55.929Z,1022.9
2016-09-23T07:11:55.952Z,1022.84
2016-09-23T07:12:55.976Z,1022.86
2016-09-23T07:13:56.003Z,1022.91
2016-09-23T07:14:56.022Z,1022.89
2016-09-23T07:15:56.046Z,1022.92
2016-09-23T07:16:56.072Z,1022.94
2016-09-23T07:17:56.101Z,1022.98
2016-09-23T07:18:56.175Z,1022.97
2016-09-23T07:19:56.144Z,1022.99
2016-09-23T07:20:56.162Z,1023.08
2016-09-23T07:21:56.638Z,1023.01
2016-09-23T07:22:56.209Z,1023.02
2016-09-23T07:23:56.244Z,1023.04
2016-09-23T07:24:56.262Z,1023.04
2016-09-23T07:25:56.335Z,1023.05
2016-09-23T07:26:56.302Z,1023.05
2016-09-23T07:27:56.352Z,1023.04
2016-09-23T07:28:56.354Z,1023.03
2016-09-23T07:29:56.382Z,1023.03
2016-09-23T07:30:56.403Z,1023.09
2016-09-23T07:31:56.431Z,1023.13
2016-09-23T07:32:56.450Z,1023.12
2016-09-23T07:33:56.476Z,1023.12
2016-09-23T07:34:56.500Z,1023.1
2016-09-23T07:35:56.534Z,1023.09
2016-09-23T07:36:56.559Z,1023.09
2016-09-23T07:37:56.580Z,1023.09
2016-09-23T07:38:56.599Z,1023.11
2016-09-23T07:39:56.621Z,1023.11
2016-09-23T07:40:56.652Z,1023.1
2016-09-23T07:41:56.671Z,1023.13
2016-09-23T07:42:56.702Z,1023.09
2016-09-23T07:43:56.721Z,1023.08
2016-09-23T07:44:56.747Z,1023.12
2016-09-23T07:45:56.770Z,1023.14
2016-09-23T07:46:56.808Z,1023.17
2016-09-23T07:47:56.823Z,1023.19
2016-09-23T07:48:56.902Z,1023.24
2016-09-23T07:49:56.871Z,1023.27
2016-09-23T07:50:56.900Z,1023.28
2016-09-23T07:51:56.928Z,1023.26
2016-09-23T07:52:56.951Z,1023.28
2016-09-23T07:53:56.980Z,1023.26
2016-09-23T07:54:56.998Z,1023.26
2016-09-23T07:55:57.021Z,1023.28
2016-09-23T07:56:57.051Z,1023.29
2016-09-23T07:57:57.075Z,1023.29
2016-09-23T07:58:57.103Z,1023.29
2016-09-23T07:59:57.133Z,1023.27
2016-09-23T08:00:57.159Z,1023.23
2016-09-23T08:01:57.175Z,1023.24
2016-09-23T08:02:57.199Z,1023.24
2016-09-23T08:03:57.237Z,1023.23
2016-09-23T08:04:57.252Z,1023.2
2016-09-23T08:05:57.295Z,1023.19
2016-09-23T08:06:57.301Z,1023.18
2016-09-23T08:07:57.332Z,1023.23
2016-09-23T08:08:57.377Z,1023.27
2016-09-23T08:09:57.413Z,1023.29
2016-09-23T08:10:57.416Z,1023.29
2016-09-23T08:11:57.428Z,1023.32
2016-09-23T08:12:57.460Z,1023.29
2016-09-23T08:13:57.481Z,1023.31
2016-09-23T08:14:57.507Z,1023.33
2016-09-23T08:15:57.537Z,1023.33
2016-09-23T08:16:57.558Z,1023.35
2016-09-23T08:17:57.585Z,1023.38
2016-09-23T08:18:57.612Z,1023.34
2016-09-23T08:19:57.635Z,1023.33
2016-09-23T08:20:57.660Z,1023.34
2016-09-23T08:21:57.695Z,1023.36
2016-09-23T08:22:57.914Z,1023.31
2016-09-23T08:23:57.792Z,1023.37
2016-09-23T08:24:57.773Z,1023.37
2016-09-23T08:25:57.789Z,1023.41
2016-09-23T08:26:57.810Z,1023.4
2016-09-23T08:27:57.951Z,1023.45
2016-09-23T08:28:57.860Z,1023.48
2016-09-23T08:29:57.884Z,1023.44
2016-09-23T08:30:57.911Z,1023.43
2016-09-23T08:31:57.935Z,1023.45
2016-09-23T08:32:57.964Z,1023.48
2016-09-23T08:33:57.990Z,1023.5
2016-09-23T08:34:58.013Z,1023.53
2016-09-23T08:35:58.040Z,1023.53
2016-09-23T08:36:58.059Z,1023.56
2016-09-23T08:37:58.093Z,1023.55
2016-09-23T08:38:58.110Z,1023.53
2016-09-23T08:39:58.134Z,1023.49
2016-09-23T08:40:58.172Z,1023.49
2016-09-23T08:42:58.260Z,1023.51
2016-09-23T08:43:58.255Z,1023.48
2016-09-23T08:44:58.261Z,1023.54
2016-09-23T08:45:58.288Z,1023.53
2016-09-23T08:46:58.312Z,1023.57
2016-09-23T08:47:58.331Z,1023.51
2016-09-23T08:48:58.354Z,1023.58
2016-09-23T08:49:58.387Z,1023.6
2016-09-23T08:50:58.412Z,1023.61
2016-09-23T08:51:58.532Z,1023.64
2016-09-23T08:52:58.457Z,1023.71
2016-09-23T08:53:58.542Z,1023.73
2016-09-23T08:54:58.518Z,1023.72
2016-09-23T08:55:58.536Z,1023.73
2016-09-23T08:56:58.567Z,1023.73
2016-09-23T08:57:58.601Z,1023.7
2016-09-23T08:58:58.613Z,1023.68
2016-09-23T08:59:58.640Z,1023.68
2016-09-23T09:00:58.662Z,1023.65
2016-09-23T09:01:58.689Z,1023.67
2016-09-23T09:02:58.774Z,1023.64
2016-09-23T09:03:58.789Z,1023.63
2016-09-23T09:04:58.770Z,1023.65
2016-09-23T09:05:58.797Z,1023.59
2016-09-23T09:06:58.815Z,1023.58
2016-09-23T09:07:58.848Z,1023.57
2016-09-23T09:08:58.922Z,1023.6
2016-09-23T09:09:58.902Z,1023.59
2016-09-23T09:10:58.933Z,1023.56
2016-09-23T09:11:58.948Z,1023.53
2016-09-23T09:12:58.973Z,1023.53
2016-09-23T09:13:59.005Z,1023.57
2016-09-23T09:14:59.031Z,1023.6
2016-09-23T09:15:59.049Z,1023.58
2016-09-23T09:16:59.082Z,1023.57
2016-09-23T09:17:59.109Z,1023.51
2016-09-23T09:18:59.181Z,1023.51
2016-09-23T09:19:59.162Z,1023.5
2016-09-23T09:20:59.187Z,1023.54
2016-09-23T09:21:59.211Z,1023.52
2016-09-23T09:22:59.239Z,1023.48
2016-09-23T09:23:59.261Z,1023.5
2016-09-23T09:24:59.286Z,1023.5
2016-09-23T09:25:59.322Z,1023.47
2016-09-23T09:26:59.341Z,1023.41
2016-09-23T09:27:59.365Z,1023.49
2016-09-23T09:28:59.394Z,1023.43
2016-09-23T09:29:59.422Z,1023.44
2016-09-23T09:30:59.448Z,1023.43
2016-09-23T09:31:59.470Z,1023.48
2016-09-23T09:32:59.504Z,1023.45
2016-09-23T09:33:59.528Z,1023.5
2016-09-23T09:34:59.550Z,1023.5
2016-09-23T09:35:59.584Z,1023.48
2016-09-23T09:36:59.605Z,1023.48
2016-09-23T09:37:59.631Z,1023.48
2016-09-23T09:38:59.706Z,1023.49
2016-09-23T09:39:59.683Z,1023.49
2016-09-23T09:40:59.710Z,1023.51
2016-09-23T09:41:59.747Z,1023.5
2016-09-23T09:42:59.765Z,1023.49
2016-09-23T09:43:59.840Z,1023.55
2016-09-23T09:44:59.822Z,1023.56
2016-09-23T09:45:59.842Z,1023.52
2016-09-23T09:46:59.869Z,1023.51
2016-09-23T09:47:59.892Z,1023.49
2016-09-23T09:48:59.921Z,1023.48
2016-09-23T09:49:59.948Z,1023.47
2016-09-23T09:50:59.972Z,1023.44
2016-09-23T09:52:00.000Z,1023.46
2016-09-23T09:53:00.039Z,1023.47
2016-09-23T09:54:00.106Z,1023.44
2016-09-23T09:55:00.078Z,1023.45
2016-09-23T09:56:00.106Z,1023.43
2016-09-23T09:57:00.136Z,1023.45
2016-09-23T09:58:00.157Z,1023.49
2016-09-23T09:59:00.235Z,1023.43
2016-09-23T10:00:00.209Z,1023.43
2016-09-23T10:01:00.234Z,1023.43
2016-09-23T10:02:00.261Z,1023.41
2016-09-23T10:03:00.290Z,1023.45
2016-09-23T10:04:00.365Z,1023.46
2016-09-23T10:05:00.338Z,1023.44
2016-09-23T10:06:00.361Z,1023.47
2016-09-23T10:07:00.391Z,1023.45
2016-09-23T10:08:00.419Z,1023.43
2016-09-23T10:09:00.490Z,1023.44
2016-09-23T10:10:00.473Z,1023.41
2016-09-23T10:11:00.506Z,1023.42
2016-09-23T10:12:00.521Z,1023.4
2016-09-23T10:13:00.556Z,1023.39
2016-09-23T10:14:00.571Z,1023.37
2016-09-23T10:15:00.601Z,1023.36
2016-09-23T10:16:00.622Z,1023.38
2016-09-23T10:17:00.651Z,1023.42
2016-09-23T10:18:00.745Z,1023.41
2016-09-23T10:19:00.749Z,1023.43
2016-09-23T10:20:00.790Z,1023.46
2016-09-23T10:21:00.757Z,1023.41
2016-09-23T10:22:00.781Z,1023.42
2016-09-23T10:23:00.807Z,1023.49
2016-09-23T10:24:00.830Z,1023.51
2016-09-23T10:25:00.863Z,1023.49
2016-09-23T10:26:00.886Z,1023.42
2016-09-23T10:27:00.911Z,1023.48
2016-09-23T10:28:00.942Z,1023.49
2016-09-23T10:29:00.975Z,1023.45
2016-09-23T10:30:00.987Z,1023.41
2016-09-23T10:31:01.018Z,1023.42
2016-09-23T10:32:01.048Z,1023.46
2016-09-23T10:33:01.072Z,1023.44
2016-09-23T10:34:01.101Z,1023.45
2016-09-23T10:35:01.124Z,1023.44
2016-09-23T10:36:01.151Z,1023.47
2016-09-23T10:37:01.177Z,1023.52
2016-09-23T10:38:01.204Z,1023.47
2016-09-23T10:39:01.283Z,1023.51
2016-09-23T10:40:01.261Z,1023.53
2016-09-23T10:41:01.290Z,1023.51
2016-09-23T10:42:01.310Z,1023.57
2016-09-23T10:43:01.342Z,1023.55
2016-09-23T10:44:01.372Z,1023.59
2016-09-23T10:45:01.393Z,1023.56
2016-09-23T10:46:01.426Z,1023.58
2016-09-23T10:47:01.454Z,1023.59
2016-09-23T10:48:01.476Z,1023.63
2016-09-23T10:49:01.550Z,1023.56
2016-09-23T10:50:01.531Z,1023.56
2016-09-23T10:51:01.562Z,1023.61
2016-09-23T10:52:01.581Z,1023.59
2016-09-23T10:53:01.613Z,1023.6
2016-09-23T10:54:01.631Z,1023.63
2016-09-23T10:55:01.664Z,1023.66
2016-09-23T10:56:01.701Z,1023.62
2016-09-23T10:57:01.722Z,1023.59
2016-09-23T10:58:01.744Z,1023.63
2016-09-23T10:59:01.821Z,1023.65
2016-09-23T11:00:01.813Z,1023.66
2016-09-23T11:01:01.826Z,1023.74
2016-09-23T11:02:01.853Z,1023.71
2016-09-23T11:03:01.881Z,1023.68
2016-09-23T11:04:01.952Z,1023.7
2016-09-23T11:05:01.932Z,1023.69
2016-09-23T11:06:01.959Z,1023.71
2016-09-23T11:07:01.985Z,1023.68
2016-09-23T11:08:02.010Z,1023.71
2016-09-23T11:09:02.040Z,1023.7
2016-09-23T11:10:02.062Z,1023.68
2016-09-23T11:11:02.094Z,1023.68
2016-09-23T11:12:02.139Z,1023.67
2016-09-23T11:13:02.198Z,1023.69
2016-09-23T11:14:02.182Z,1023.74
2016-09-23T11:15:02.200Z,1023.73
2016-09-23T11:16:02.229Z,1023.72
2016-09-23T11:17:02.264Z,1023.74
2016-09-23T11:18:02.279Z,1023.75
2016-09-23T11:19:02.308Z,1023.74
2016-09-23T11:20:02.342Z,1023.73
2016-09-23T11:21:02.359Z,1023.74
2016-09-23T11:22:02.387Z,1023.75
2016-09-23T11:23:02.412Z,1023.78
2016-09-23T11:24:02.493Z,1023.75
2016-09-23T11:25:02.468Z,1023.77
2016-09-23T11:26:02.499Z,1023.76
2016-09-23T11:27:02.529Z,1023.78
2016-09-23T11:28:02.547Z,1023.75
2016-09-23T11:29:02.579Z,1023.8
2016-09-23T11:30:02.611Z,1023.8
2016-09-23T11:31:02.642Z,1023.82
2016-09-23T11:32:02.661Z,1023.84
2016-09-23T11:33:02.687Z,1023.77
2016-09-23T11:34:02.707Z,1023.83
2016-09-23T11:35:02.788Z,1023.83
2016-09-23T11:36:02.769Z,1023.83
2016-09-23T11:37:02.794Z,1023.77
2016-09-23T11:38:02.818Z,1023.8
2016-09-23T11:39:02.913Z,1023.79
2016-09-23T11:40:02.870Z,1023.8
2016-09-23T11:41:02.899Z,1023.8
2016-09-23T11:42:02.935Z,1023.78
2016-09-23T11:43:02.955Z,1023.79
2016-09-23T11:44:02.988Z,1023.75
2016-09-23T11:45:03.011Z,1023.77
2016-09-23T11:46:03.037Z,1023.77
2016-09-23T11:47:03.066Z,1023.77
2016-09-23T11:48:03.100Z,1023.74
2016-09-23T11:49:03.120Z,1023.72
2016-09-23T11:50:03.150Z,1023.68
2016-09-23T11:51:03.176Z,1023.72
2016-09-23T11:52:03.197Z,1023.71
2016-09-23T11:53:03.228Z,1023.69
2016-09-23T11:54:03.305Z,1023.69
2016-09-23T11:55:03.288Z,1023.67
2016-09-23T11:56:03.313Z,1023.7
2016-09-23T11:57:03.344Z,1023.75
2016-09-23T11:58:03.370Z,1023.75
2016-09-23T11:59:03.401Z,1023.75
2016-09-23T12:00:03.427Z,1023.73
2016-09-23T12:01:03.454Z,1023.75
2016-09-23T12:02:03.486Z,1023.75
2016-09-23T12:03:03.501Z,1023.79
2016-09-23T12:04:03.537Z,1023.83
2016-09-23T12:05:03.561Z,1023.78
2016-09-23T12:06:03.595Z,1023.83
2016-09-23T12:07:03.620Z,1023.82
2016-09-23T12:08:03.648Z,1023.78
2016-09-23T12:09:03.671Z,1023.83
2016-09-23T12:10:03.697Z,1023.75